Latest Weather Observations for Strathalbyn

IDS60901

Issued at 9:41 pm CST Sunday 28 May 2017 (issued every 10 minutes, with the page automatically refreshed every 10 minutes)

About weather observations | Map of Adelaide area stations | Latest observations for Adelaide area | Other Formats
Station Details ID: 024580 Name: STRATHALBYN RACECOURSE Lat: -35.28 Lon: 138.89 Height: 58.0 m
Data from the previous 72 hours. | See also: Recent months at Strathalbyn
Date/Time
CST
Temp
°C
App
Temp
°C
Dew
Point
°C
Rel
Hum
%
Delta-T
°C
Wind Press
QNH
hPa
Press
MSL
hPa
Rain since
9am
mm
Dir  Spd
km/h
Gust
km/h
Spd
kts
Gust
kts
28/09:30pm 10.8 6.0 5.6 70 2.4 WSW 20 28 11 15 1019.3 1019.3 0.6
28/09:00pm 9.9 5.7 5.7 75 1.9 W 17 20 9 11 1019.0 1019.0 0.6
28/08:30pm 10.0 6.2 5.8 75 1.9 W 15 20 8 11 1018.6 1018.6 0.6
28/08:00pm 10.1 6.7 6.1 76 1.9 W 13 17 7 9 1018.4 1018.4 0.6
28/07:30pm 10.6 6.9 6.4 75 2.0 W 15 19 8 10 1018.1 1018.1 0.6
28/07:00pm 9.9 7.2 5.7 75 1.9 WSW 9 11 5 6 1017.9 1017.9 0.6
28/06:30pm 10.5 6.8 6.1 74 2.0 W 15 20 8 11 1017.4 1017.4 0.6
28/06:00pm 10.5 6.9 6.8 78 1.7 W 15 19 8 10 1017.0 1017.0 0.6
28/05:30pm 11.1 7.1 6.6 74 2.1 WSW 17 22 9 12 1016.7 1016.7 0.6
28/05:00pm 10.9 7.3 6.6 75 2.0 WSW 15 20 8 11 1016.3 1016.3 0.6
28/04:30pm 11.5 7.8 7.8 78 1.8 WSW 17 26 9 14 1016.0 1016.0 0.6
28/04:00pm 12.6 8.2 7.3 70 2.6 SW 20 35 11 19 1015.6 1015.6 0.4
28/03:30pm 13.7 9.9 7.5 66 3.0 SW 17 30 9 16 1015.1 1015.1 0.4
28/03:00pm 12.5 8.7 7.6 72 2.4 WSW 17 24 9 13 1014.9 1014.9 0.4
28/02:30pm 13.1 8.8 8.0 71 2.5 WSW 20 26 11 14 1014.6 1014.6 0.2
28/02:07pm 11.5 5.7 7.8 78 1.8 SW 28 46 15 25 1014.6 1014.6 0.2
28/02:00pm 12.8 5.7 6.6 66 3.0 SW 33 46 18 25 1014.4 1014.4 0.0
28/01:37pm 14.9 8.5 5.4 53 4.5 WSW 28 48 15 26 1014.0 1014.0 0.0
28/01:30pm 14.7 9.2 5.8 55 4.3 SW 24 35 13 19 1014.0 1014.0 0.0
28/01:00pm 14.5 8.3 6.3 58 4.0 WSW 28 43 15 23 1013.8 1013.8 0.0
28/12:30pm 13.3 9.2 8.6 73 2.4 WSW 20 35 11 19 1013.8 1013.8 0.0
28/12:00pm 14.8 8.6 6.1 56 4.2 WSW 28 44 15 24 1013.9 1013.9 0.0
28/11:40am 14.6 8.5 6.4 58 4.0 WSW 28 46 15 25 1014.0 1014.0 0.0
28/11:30am 14.3 6.7 5.9 57 4.0 WSW 35 46 19 25 1014.0 1014.0 0.0
28/11:00am 14.2 8.1 6.8 61 3.6 W 28 41 15 22 1014.2 1014.2 0.0
28/10:30am 13.2 8.5 7.6 69 2.7 W 22 30 12 16 1014.5 1014.5 0.0
28/10:00am 14.1 8.1 7.2 63 3.4 WSW 28 44 15 24 1014.2 1014.2 0.0
28/09:30am 13.5 7.7 6.4 62 3.4 WSW 26 39 14 21 1013.9 1013.9 0.0
28/09:00am 13.0 6.9 6.4 64 3.2 W 28 35 15 19 1013.5 1013.5 5.2
28/08:30am 12.3 7.7 6.6 68 2.7 W 20 30 11 16 1013.4 1013.4 5.2
28/08:00am 11.5 7.0 6.2 70 2.5 W 19 26 10 14 1013.2 1013.2 5.2
28/07:30am 10.6 6.8 5.6 71 2.3 W 15 19 8 10 1013.0 1013.0 5.2
28/07:00am 10.6 6.3 5.4 70 2.4 W 17 20 9 11 1012.8 1012.8 5.2
28/06:30am 10.3 6.8 5.3 71 2.3 W 13 17 7 9 1012.6 1012.6 5.2
28/06:00am 10.4 6.5 5.4 71 2.3 W 15 20 8 11 1012.4 1012.4 5.2
28/05:30am 10.8 6.2 5.6 70 2.4 WNW 19 28 10 15 1012.2 1012.2 5.2
28/05:00am 10.7 6.2 6.1 73 2.1 WNW 19 26 10 14 1012.0 1012.0 5.2
28/04:30am 10.5 6.0 5.9 73 2.1 WNW 19 24 10 13 1011.9 1011.9 5.2
28/04:00am 10.5 6.0 6.1 74 2.0 W 19 24 10 13 1012.0 1012.0 5.2
28/03:30am 10.6 6.5 6.2 74 2.1 WSW 17 24 9 13 1012.1 1012.1 5.2
28/03:00am 10.7 6.5 5.9 72 2.2 W 17 26 9 14 1012.3 1012.3 5.2
28/02:30am 10.5 6.3 5.5 71 2.3 WSW 17 26 9 14 1012.2 1012.2 5.2
28/02:00am 10.6 6.2 4.9 68 2.6 W 17 24 9 13 1012.3 1012.3 5.2
28/01:30am 10.7 6.0 5.3 69 2.5 W 19 26 10 14 1012.4 1012.4 5.2
28/01:00am 10.4 6.2 5.8 73 2.1 W 17 22 9 12 1012.6 1012.6 5.2
28/12:30am 10.6 7.3 6.4 75 2.0 W 13 20 7 11 1012.8 1012.8 5.2
28/12:00am 10.9 6.9 6.6 75 2.0 W 17 22 9 12 1012.5 1012.5 5.2
 
Date/Time
CST
Temp
°C
App
Temp
°C
Dew
Point
°C
Rel
Hum
%
Delta-T
°C
Wind Press
QNH
hPa
Press
MSL
hPa
Rain since
9am
mm
Dir  Spd
km/h
Gust
km/h
Spd
kts
Gust
kts
27/11:30pm 11.0 6.7 6.9 76 2.0 W 19 26 10 14 1012.5 1012.5 5.2
27/11:00pm 11.5 7.0 7.0 74 2.2 W 20 28 11 15 1012.5 1012.5 5.2
27/10:30pm 11.9 8.3 8.2 78 1.8 W 17 28 9 15 1012.4 1012.4 5.2
27/10:00pm 11.1 8.5 7.8 80 1.6 WSW 11 17 6 9 1012.1 1012.1 5.2
27/09:30pm 11.3 8.4 8.2 81 1.5 W 13 17 7 9 1012.2 1012.2 5.2
27/09:00pm 11.3 8.9 8.7 84 1.3 W 11 13 6 7 1011.8 1011.8 5.2
27/08:30pm 11.9 9.2 8.9 82 1.5 W 13 15 7 8 1011.5 1011.5 5.2
27/08:00pm 11.9 9.3 9.3 84 1.3 W 13 19 7 10 1011.8 1011.8 5.0
27/07:30pm 12.2 8.0 9.6 84 1.3 WSW 22 33 12 18 1011.6 1011.6 4.8
27/07:00pm 12.6 9.3 9.6 82 1.5 WNW 17 26 9 14 1010.8 1010.8 3.4
27/06:30pm 12.4 9.4 9.4 82 1.5 WNW 15 26 8 14 1010.8 1010.8 3.0
27/06:00pm 12.0 8.6 9.2 83 1.4 WSW 17 24 9 13 1010.2 1010.2 3.0
27/05:30pm 12.7 6.5 9.3 80 1.7 WSW 32 52 17 28 1010.3 1010.3 2.6
27/05:16pm 13.9 9.3 10.9 82 1.6 W 26 52 14 28 1010.0 1010.0 2.4
27/05:13pm 14.3 10.9 11.1 81 1.7 W 20 52 11 28 1009.9 1009.9 2.4
27/05:00pm 14.9 12.6 11.7 81 1.7 W 15 28 8 15 1009.4 1009.4 1.6
27/04:30pm 16.4 11.4 10.9 70 3.0 NW 28 46 15 25 1009.1 1009.1 0.4
27/04:28pm 16.1 11.0 10.6 70 2.9 NW 28 46 15 25 1009.1 1009.1 0.4
27/04:00pm 17.7 14.0 10.1 61 4.0 WNW 20 30 11 16 1009.3 1009.3 0.0
27/03:30pm 18.3 12.5 9.6 57 4.6 NW 30 44 16 24 1009.4 1009.4 0.0
27/03:00pm 18.4 13.4 9.5 56 4.7 NW 26 37 14 20 1009.5 1009.5 0.0
27/02:30pm 18.7 14.2 8.7 52 5.2 NW 22 33 12 18 1009.7 1009.7 0.0
27/02:00pm 19.4 13.8 8.7 50 5.6 NW 28 39 15 21 1010.0 1010.0 0.0
27/01:30pm 19.5 13.2 8.8 50 5.6 NW 32 44 17 24 1010.1 1010.1 0.0
27/01:00pm 19.1 12.7 8.7 51 5.4 NW 32 44 17 24 1010.5 1010.5 0.0
27/12:30pm 18.8 12.3 8.2 50 5.5 NW 32 46 17 25 1010.7 1010.7 0.0
27/12:00pm 18.9 12.3 8.6 51 5.4 NW 33 44 18 24 1011.2 1011.2 0.0
27/11:30am 18.5 11.4 7.9 50 5.4 NW 35 50 19 27 1011.8 1011.8 0.0
27/11:12am 18.3 12.4 7.4 49 5.5 NW 28 48 15 26 1012.2 1012.2 0.0
27/11:00am 18.3 11.6 7.4 49 5.5 NW 32 43 17 23 1012.4 1012.4 0.0
27/10:30am 18.2 11.4 7.0 48 5.6 NW 32 44 17 24 1012.6 1012.6 0.0
27/10:00am 18.4 13.2 7.2 48 5.7 NNW 24 35 13 19 1012.7 1012.7 0.0
27/09:30am 17.0 13.2 7.6 54 4.7 N 17 26 9 14 1013.0 1013.0 0.0
27/09:00am 15.6 11.8 7.6 59 4.0 N 17 20 9 11 1013.2 1013.2 0.2
27/08:30am 15.6 11.9 7.9 60 3.9 N 17 24 9 13 1013.4 1013.4 0.2
27/08:00am 15.0 12.1 8.0 63 3.5 N 13 20 7 11 1013.7 1013.7 0.2
27/07:30am 15.8 11.3 7.1 56 4.3 NW 20 26 11 14 1014.0 1014.0 0.0
27/07:00am 16.1 11.1 6.3 52 4.8 NNW 22 32 12 17 1013.4 1013.4 0.0
27/06:30am 15.7 10.7 6.4 54 4.5 NNW 22 30 12 16 1013.2 1013.2 0.0
27/06:00am 15.3 11.0 6.8 57 4.2 NNW 19 24 10 13 1013.1 1013.1 0.0
27/05:30am 14.9 10.9 6.7 58 4.0 NNW 17 24 9 13 1013.3 1013.3 0.0
27/05:00am 12.6 10.7 6.9 68 2.7 NW 6 11 3 6 1013.4 1013.4 0.0
27/04:30am 12.1 9.9 6.4 68 2.7 NNW 7 11 4 6 1013.7 1013.7 0.0
27/04:00am 13.2 9.5 6.5 64 3.2 NE 15 17 8 9 1013.9 1013.9 0.0
27/03:30am 13.4 9.8 6.7 64 3.2 NE 15 19 8 10 1014.1 1014.1 0.0
27/03:00am 13.7 10.5 6.8 63 3.3 NNE 13 22 7 12 1014.3 1014.3 0.0
27/02:30am 14.2 10.6 6.6 60 3.7 N 15 19 8 10 1014.5 1014.5 0.0
27/02:00am 14.0 10.3 6.4 60 3.7 NNW 15 20 8 11 1014.8 1014.8 0.0
27/01:30am 14.5 10.5 6.6 59 3.8 NNW 17 24 9 13 1015.1 1015.1 0.0
27/01:00am 12.6 9.5 7.1 69 2.7 N 13 20 7 11 1015.3 1015.3 0.0
27/12:30am 12.0 8.7 6.3 68 2.7 N 13 15 7 8 1015.6 1015.6 0.0
27/12:00am 9.1 6.1 5.8 80 1.5 N 11 11 6 6 1016.0 1016.0 0.0
 
Date/Time
CST
Temp
°C
App
Temp
°C
Dew
Point
°C
Rel
Hum
%
Delta-T
°C
Wind Press
QNH
hPa
Press
MSL
hPa
Rain since
9am
mm
Dir  Spd
km/h
Gust
km/h
Spd
kts
Gust
kts
26/11:30pm 8.8 6.1 5.5 80 1.5 NNW 9 11 5 6 1016.2 1016.2 0.0
26/11:00pm 9.0 6.3 5.7 80 1.5 N 9 9 5 5 1016.3 1016.3 0.0
26/10:30pm 9.2 6.5 5.6 78 1.6 N 9 11 5 6 1016.7 1016.7 0.0
26/10:00pm 10.3 6.9 6.1 75 2.0 N 13 15 7 8 1016.9 1016.9 0.0
26/09:30pm 10.4 7.1 6.4 76 1.9 NNW 13 15 7 8 1017.0 1017.0 0.0
26/09:00pm 10.7 7.4 6.6 76 1.9 NW 13 15 7 8 1017.1 1017.1 0.0
26/08:30pm 10.4 7.1 6.5 77 1.8 NNW 13 15 7 8 1017.1 1017.1 0.0
26/08:00pm 10.3 7.4 6.5 77 1.8 N 11 13 6 7 1017.3 1017.3 0.0
26/07:30pm 10.5 7.7 7.0 79 1.7 NNW 11 13 6 7 1017.5 1017.5 0.0
26/07:00pm 12.1 10.2 6.8 70 2.5 WNW 6 9 3 5 1017.6 1017.6 0.0
26/06:30pm 12.1 10.1 7.0 71 2.4 NW 7 9 4 5 1017.5 1017.5 0.0
26/06:00pm 12.9 10.6 7.4 69 2.7 NNW 9 11 5 6 1017.2 1017.2 0.0
26/05:30pm 14.2 11.9 7.3 63 3.4 NNW 9 9 5 5 1017.1 1017.1 0.0
26/05:00pm 17.1 14.7 7.2 52 5.0 NNW 9 11 5 6 1017.0 1017.0 0.0
26/04:30pm 18.8 16.1 7.3 47 5.8 NNW 11 15 6 8 1017.1 1017.1 0.0
26/04:00pm 19.9 16.4 7.3 44 6.4 NNW 15 22 8 12 1017.1 1017.1 0.0
26/03:30pm 20.2 16.9 7.9 45 6.4 NNW 15 24 8 13 1017.3 1017.3 0.0
26/03:00pm 20.2 16.3 8.5 47 6.1 NW 19 26 10 14 1017.5 1017.5 0.0
26/02:30pm 20.2 16.9 8.2 46 6.2 NW 15 24 8 13 1017.8 1017.8 0.0
26/02:00pm 20.3 16.4 9.5 50 5.8 NW 20 30 11 16 1018.0 1018.0 0.0
26/01:30pm 20.0 16.7 9.6 51 5.5 NW 17 28 9 15 1018.4 1018.4 0.0
26/01:00pm 19.5 16.5 10.5 56 4.9 NNW 17 22 9 12 1018.9 1018.9 0.0
26/12:30pm 19.8 16.2 10.0 53 5.3 WNW 19 26 10 14 1019.3 1019.3 0.0
26/12:00pm 18.3 15.8 9.6 57 4.6 NW 13 17 7 9 1020.0 1019.9 0.0
26/11:30am 19.0 17.1 10.6 58 4.5 NNW 11 19 6 10 1020.6 1020.5 0.0
26/11:00am 18.4 17.2 11.5 64 3.8 NNW 9 15 5 8 1021.1 1021.0 0.0
26/10:30am 17.4 15.5 11.7 69 3.1 N 13 20 7 11 1021.6 1021.5 0.0
26/10:00am 16.5 15.7 12.8 79 2.1 N 9 11 5 6 1021.9 1021.9 0.0
26/09:30am 14.4 13.9 12.1 86 1.2 NNE 6 7 3 4 1022.2 1022.2 0.0
26/09:00am 13.2 12.3 11.3 88 1.0 NNE 7 9 4 5 1022.3 1022.3 0.2
26/08:30am 11.8 10.5 11.2 96 0.3 NNE 9 13 5 7 1022.3 1022.3 0.2
26/08:00am 10.8 9.2 10.3 97 0.3 N 9 9 5 5 1022.1 1022.1 0.2
26/07:30am 9.7 7.8 9.2 97 0.2 N 9 9 5 5 1021.9 1021.9 0.2
26/07:00am 9.3 7.7 8.7 96 0.3 N 7 7 4 4 1021.8 1021.7 0.2
26/06:30am 9.2 7.7 8.3 94 0.4 NNW 6 9 3 5 1021.7 1021.6 0.2
26/06:00am 10.5 8.1 9.9 96 0.3 NNW 13 15 7 8 1021.5 1021.4 0.2
26/05:30am 10.7 8.3 10.1 96 0.3 NNW 13 15 7 8 1021.5 1021.4 0.2
26/05:00am 11.3 9.5 10.7 96 0.3 NNW 11 13 6 7 1021.3 1021.2 0.2
26/04:30am 11.7 10.4 11.1 96 0.3 NNW 9 11 5 6 1021.1 1021.0 0.0
26/04:00am 11.0 9.5 10.4 96 0.3 NNW 9 11 5 6 1021.2 1021.1 0.0
26/03:30am 11.8 10.9 11.2 96 0.3 NW 7 9 4 5 1021.3 1021.2 0.0
26/03:00am 12.1 11.3 11.0 93 0.6 NW 6 7 3 4 1021.3 1021.2 0.0
26/02:30am 12.7 13.3 11.8 94 0.5 CALM 0 0 0 0 1021.5 1021.4 0.0
26/02:00am 12.8 13.3 11.7 93 0.6 CALM 0 0 0 0 1021.5 1021.4 0.0
26/01:30am 12.5 12.9 11.4 93 0.6 CALM 0 0 0 0 1021.5 1021.4 0.0
26/01:00am 12.7 12.9 11.9 95 0.4 W 2 6 1 3 1021.6 1021.5 0.0
26/12:30am 12.7 12.6 10.9 89 0.9 SW 2 6 1 3 1021.7 1021.6 0.0
26/12:00am 13.4 12.2 11.6 89 1.0 SW 9 13 5 7 1021.8 1021.7 0.0
 
Date/Time
CST
Temp
°C
App
Temp
°C
Dew
Point
°C
Rel
Hum
%
Delta-T
°C
Wind Press
QNH
hPa
Press
MSL
hPa
Rain since
9am
mm
Dir  Spd
km/h
Gust
km/h
Spd
kts
Gust
kts
25/11:30pm 13.3 12.8 11.9 91 0.7 WNW 6 7 3 4 1021.9 1021.9 0.0
25/11:00pm 13.0 13.1 11.4 90 0.8 N 2 7 1 4 1021.9 1021.9 0.0
25/10:30pm 13.4 12.7 11.5 88 1.0 W 6 7 3 4 1021.9 1021.9 0.0
25/10:00pm 13.3 11.6 11.2 87 1.1 W 11 11 6 6 1021.8 1021.7 0.0

Latest Capital City Observations: Canberra | Sydney | Melbourne | Brisbane | Adelaide | Perth | Hobart | Darwin

Other Formats:

Comma delimited format used in spreadsheet applications
http://www.bom.gov.au/fwo/IDS60901/IDS60901.94814.axf

JavaScript Object Notation format (JSON) in row-major order
http://www.bom.gov.au/fwo/IDS60901/IDS60901.94814.json